createdAt,value
2018-12-04T00:01:02.116Z,99099.73
2018-12-04T00:03:31.893Z,99109.53
2018-12-04T00:06:01.667Z,99113.05
2018-12-04T00:08:31.418Z,99132.39
2018-12-04T00:11:01.205Z,99131.13
2018-12-04T00:13:31.270Z,99136.89
2018-12-04T00:16:01.031Z,99143.97
2018-12-04T00:18:30.786Z,99140.98
2018-12-04T00:21:00.582Z,99154.56
2018-12-04T00:23:30.357Z,99173.33
2018-12-04T00:26:00.145Z,99176.13
2018-12-04T00:28:29.892Z,99200.60
2018-12-04T00:30:59.921Z,99202.55
2018-12-04T00:33:29.726Z,99230.77
2018-12-04T00:35:59.741Z,99244.05
2018-12-04T00:38:29.573Z,99248.95
2018-12-04T00:40:59.594Z,99260.86
2018-12-04T00:43:29.348Z,99268.43
2018-12-04T00:45:59.127Z,99281.41
2018-12-04T00:48:30.264Z,99283.27
2018-12-04T00:51:00.074Z,99307.59
2018-12-04T00:53:30.190Z,99326.74
2018-12-04T00:56:00.039Z,99332.42
2018-12-04T00:58:29.930Z,99353.22
2018-12-04T01:00:59.733Z,99363.42
2018-12-04T01:03:29.559Z,99369.60
2018-12-04T01:05:59.357Z,99360.90
2018-12-04T01:08:29.176Z,99367.06
2018-12-04T01:10:59.030Z,99370.55
2018-12-04T01:13:29.449Z,99382.66
2018-12-04T01:15:59.277Z,99386.67
2018-12-04T01:18:29.078Z,99392.01
2018-12-04T01:20:59.043Z,99404.41
2018-12-04T01:23:28.815Z,99404.36
2018-12-04T01:25:58.662Z,99411.09
2018-12-04T01:28:28.561Z,99415.67
2018-12-04T01:30:58.426Z,99417.30
2018-12-04T01:33:28.251Z,99426.20
2018-12-04T01:35:58.123Z,99421.84
2018-12-04T01:38:28.176Z,99432.95
2018-12-04T01:40:58.066Z,99447.02
2018-12-04T01:43:27.841Z,99457.05
2018-12-04T01:45:57.647Z,99462.72
2018-12-04T01:48:27.670Z,99475.73
2018-12-04T01:50:57.425Z,99472.50
2018-12-04T01:53:27.480Z,99476.55
2018-12-04T01:55:57.252Z,99481.95
2018-12-04T01:58:27.303Z,99493.08
2018-12-04T02:00:57.082Z,99493.91
2018-12-04T02:03:26.870Z,99499.89
2018-12-04T02:05:56.713Z,99508.80
2018-12-04T02:08:26.775Z,99506.66
2018-12-04T02:10:56.783Z,99495.78
2018-12-04T02:13:26.566Z,99499.31
2018-12-04T02:15:56.373Z,99507.03
2018-12-04T02:18:26.179Z,99521.34
2018-12-04T02:20:56.247Z,99518.05
2018-12-04T02:23:26.043Z,99529.91
2018-12-04T02:25:55.795Z,99530.67
2018-12-04T02:28:41.604Z,99528.63
2018-12-04T02:31:12.139Z,99550.47
2018-12-04T02:33:41.918Z,99561.47
2018-12-04T02:36:11.687Z,99557.88
2018-12-04T02:38:41.736Z,99565.63
2018-12-04T02:41:13.096Z,99568.86
2018-12-04T02:43:42.879Z,99575.34
2018-12-04T02:46:12.633Z,99577.22
2018-12-04T02:48:42.719Z,99575.87
2018-12-04T02:51:12.490Z,99587.45
2018-12-04T02:53:42.648Z,99594.24
2018-12-04T02:56:13.089Z,99596.41
2018-12-04T02:58:42.878Z,99607.22
2018-12-04T03:01:12.647Z,99608.88
2018-12-04T03:03:42.652Z,99620.20
2018-12-04T03:06:12.419Z,99630.47
2018-12-04T03:11:47.533Z,99643.45
2018-12-04T03:19:55.055Z,99663.70
2018-12-04T03:22:24.838Z,99672.06
2018-12-04T03:24:54.897Z,99676.13
2018-12-04T03:27:31.908Z,99685.87
2018-12-04T03:30:01.700Z,99685.57
2018-12-04T03:32:31.483Z,99691.84
2018-12-04T03:37:36.491Z,99702.94
2018-12-04T03:40:07.868Z,99700.20
2018-12-04T03:42:37.907Z,99706.20
2018-12-04T03:45:07.812Z,99703.98
2018-12-04T03:47:37.847Z,99714.79
2018-12-04T03:50:07.684Z,99722.59
2018-12-04T03:52:37.433Z,99720.19
2018-12-04T03:55:47.679Z,99727.52
2018-12-04T03:58:17.480Z,99724.50
2018-12-04T04:00:47.306Z,99727.42
2018-12-04T04:03:17.089Z,99742.01
2018-12-04T04:05:47.152Z,99747.94
2018-12-04T04:08:17.188Z,99754.43
2018-12-04T04:10:47.004Z,99752.52
2018-12-04T04:13:16.802Z,99760.87
2018-12-04T04:15:46.630Z,99759.47
2018-12-04T04:18:16.405Z,99768.09
2018-12-04T04:20:46.236Z,99775.06
2018-12-04T04:23:16.067Z,99781.55
2018-12-04T04:25:45.874Z,99791.56
2018-12-04T04:28:15.947Z,99792.25
2018-12-04T04:30:45.724Z,99789.77
2018-12-04T04:33:15.793Z,99780.30
2018-12-04T04:35:45.583Z,99794.84
2018-12-04T04:41:11.925Z,99795.33
2018-12-04T04:43:41.689Z,99808.77
2018-12-04T04:46:11.720Z,99813.42
2018-12-04T04:48:41.749Z,99816.34
2018-12-04T04:51:11.501Z,99814.00
2018-12-04T04:53:41.277Z,99806.17
2018-12-04T04:56:11.003Z,99802.33
2018-12-04T04:58:40.831Z,99810.79
2018-12-04T05:01:10.589Z,99827.30
2018-12-04T05:03:40.620Z,99830.98
2018-12-04T05:06:10.365Z,99840.48
2018-12-04T05:08:40.155Z,99839.91
2018-12-04T05:11:09.870Z,99845.89
2018-12-04T05:13:39.660Z,99852.63
2018-12-04T05:16:09.491Z,99863.98
2018-12-04T05:18:39.318Z,99863.94
2018-12-04T05:21:09.117Z,99866.06
2018-12-04T05:23:39.235Z,99868.66
2018-12-04T05:26:09.229Z,99881.53
2018-12-04T05:28:39.003Z,99889.38
2018-12-04T05:31:08.744Z,99892.07
2018-12-04T05:33:38.804Z,99898.24
2018-12-04T05:36:08.603Z,99895.38
2018-12-04T05:38:38.361Z,99893.13
2018-12-04T05:41:08.138Z,99901.23
2018-12-04T05:43:38.315Z,99906.05
2018-12-04T05:46:08.383Z,99907.61
2018-12-04T05:48:38.153Z,99917.03
2018-12-04T05:51:08.621Z,99923.86
2018-12-04T05:53:41.199Z,99922.14
2018-12-04T05:56:13.514Z,99927.91
2018-12-04T05:58:43.324Z,99921.23
2018-12-04T06:01:13.101Z,99916.61
2018-12-04T06:03:43.023Z,99927.92
2018-12-04T06:06:12.791Z,99922.80
2018-12-04T06:08:42.905Z,99937.11
2018-12-04T06:11:13.048Z,99941.73
2018-12-04T06:13:43.081Z,99955.59
2018-12-04T06:16:12.833Z,99960.98
2018-12-04T06:18:42.703Z,99967.02
2018-12-04T06:21:12.458Z,99978.91
2018-12-04T06:23:42.258Z,99977.05
2018-12-04T06:26:12.254Z,99981.09
2018-12-04T06:28:42.028Z,99989.77
2018-12-04T06:31:12.061Z,99993.29
2018-12-04T06:33:42.119Z,100000.03
2018-12-04T06:36:11.884Z,100005.64
2018-12-04T06:38:41.907Z,99995.92
2018-12-04T06:41:11.916Z,100004.42
2018-12-04T06:43:41.856Z,100011.87
2018-12-04T06:46:11.606Z,100017.97
2018-12-04T06:48:41.377Z,100030.94
2018-12-04T06:51:11.145Z,100037.98
2018-12-04T06:53:40.914Z,100054.57
2018-12-04T06:56:10.719Z,100056.96
2018-12-04T06:58:40.492Z,100068.00
2018-12-04T07:01:10.260Z,100071.45
2018-12-04T07:03:40.025Z,100068.39
2018-12-04T07:06:10.045Z,100068.39
2018-12-04T07:08:40.102Z,100081.17
2018-12-04T07:11:09.849Z,100080.96
2018-12-04T07:13:39.907Z,100090.41
2018-12-04T07:16:28.841Z,100094.66
2018-12-04T07:18:58.680Z,100104.07
2018-12-04T07:21:28.397Z,100108.63
2018-12-04T07:23:58.436Z,100112.73
2018-12-04T07:26:28.422Z,100114.14
2018-12-04T07:28:58.208Z,100115.77
2018-12-04T07:31:27.979Z,100122.23
2018-12-04T07:33:57.819Z,100128.39
2018-12-04T07:36:27.575Z,100133.20
2018-12-04T07:38:57.338Z,100136.03
2018-12-04T07:44:53.237Z,100151.34
2018-12-04T07:47:24.104Z,100168.98
2018-12-04T07:49:54.277Z,100176.55
2018-12-04T07:52:25.128Z,100198.64
2018-12-04T07:55:35.218Z,100192.08
2018-12-04T07:58:05.311Z,100200.16
2018-12-04T08:00:35.197Z,100203.62
2018-12-04T08:03:05.006Z,100207.22
2018-12-04T08:05:34.750Z,100215.14
2018-12-04T08:08:05.362Z,100228.94
2018-12-04T08:10:35.389Z,100232.05
2018-12-04T08:13:05.952Z,100237.87
2018-12-04T08:15:36.040Z,100241.54
2018-12-04T08:18:05.826Z,100251.30
2018-12-04T08:20:35.591Z,100259.22
2018-12-04T08:23:05.346Z,100261.23
2018-12-04T08:25:35.309Z,100259.44
2018-12-04T08:31:01.167Z,100266.66
2018-12-04T08:33:30.954Z,100268.98
2018-12-04T08:36:00.975Z,100261.50
2018-12-04T08:38:31.422Z,100263.44
2018-12-04T08:41:01.461Z,100268.84
2018-12-04T08:43:32.404Z,100269.45
2018-12-04T08:46:03.159Z,100274.64
2018-12-04T08:48:32.925Z,100276.72
2018-12-04T08:51:03.695Z,100284.70
2018-12-04T08:53:33.462Z,100291.37
2018-12-04T08:56:03.230Z,100290.78
2018-12-04T08:58:33.045Z,100296.77
2018-12-04T09:01:03.658Z,100318.19
2018-12-04T09:03:33.794Z,100321.31
2018-12-04T09:08:54.336Z,100344.55
2018-12-04T09:11:24.029Z,100345.91
2018-12-04T09:16:50.597Z,100357.88
2018-12-04T09:19:20.712Z,100367.18
2018-12-04T09:21:50.503Z,100381.07
2018-12-04T09:24:20.437Z,100385.31
2018-12-04T09:27:09.222Z,100386.62
2018-12-04T09:29:39.150Z,100388.00
2018-12-04T09:32:08.945Z,100392.58
2018-12-04T09:37:14.214Z,100389.36
2018-12-04T09:39:44.010Z,100395.97
2018-12-04T09:42:36.606Z,100392.02
2018-12-04T09:45:08.051Z,100400.13
2018-12-04T09:50:26.431Z,100406.50
2018-12-04T09:52:56.468Z,100411.59
2018-12-04T09:55:26.517Z,100410.79
2018-12-04T09:57:56.278Z,100420.30
2018-12-04T10:00:26.079Z,100418.91
2018-12-04T10:02:56.097Z,100433.13
2018-12-04T10:05:26.393Z,100432.52
2018-12-04T10:07:56.423Z,100432.77
2018-12-04T10:10:26.567Z,100436.20
2018-12-04T10:12:56.336Z,100438.51
2018-12-04T10:15:27.873Z,100447.83
2018-12-04T10:17:57.944Z,100453.06
2018-12-04T10:20:27.738Z,100453.14
2018-12-04T10:22:58.121Z,100461.36
2018-12-04T10:25:27.913Z,100463.38
2018-12-04T10:27:57.925Z,100464.69
2018-12-04T10:30:27.716Z,100458.38
2018-12-04T10:32:57.482Z,100456.78
2018-12-04T10:35:27.278Z,100456.44
2018-12-04T10:37:57.055Z,100453.87
2018-12-04T10:40:28.357Z,100460.52
2018-12-04T10:42:58.149Z,100466.52
2018-12-04T10:45:47.082Z,100460.66
2018-12-04T10:48:19.304Z,100464.95
2018-12-04T10:50:49.065Z,100466.30
2018-12-04T10:53:19.077Z,100465.49
2018-12-04T10:55:48.879Z,100466.91
2018-12-04T10:58:20.950Z,100475.67
2018-12-04T11:01:09.373Z,100474.77
2018-12-04T11:03:39.551Z,100477.47
2018-12-04T11:06:09.413Z,100484.99
2018-12-04T11:08:39.161Z,100483.46
2018-12-04T11:11:10.838Z,100485.56
2018-12-04T11:13:44.309Z,100489.64
2018-12-04T11:16:15.399Z,100482.39
2018-12-04T11:18:45.184Z,100492.57
2018-12-04T11:21:14.956Z,100489.05
2018-12-04T11:23:49.317Z,100497.69
2018-12-04T11:37:26.073Z,100526.42
2018-12-04T11:39:56.179Z,100538.56
2018-12-04T11:42:26.118Z,100541.86
2018-12-04T11:44:56.946Z,100546.73
2018-12-04T11:47:26.689Z,100547.38
2018-12-04T11:49:56.960Z,100546.21
2018-12-04T11:52:27.314Z,100541.58
2018-12-04T11:54:57.208Z,100540.86
2018-12-04T11:57:27.104Z,100541.08
2018-12-04T11:59:57.013Z,100541.98
2018-12-04T12:02:26.743Z,100535.00
2018-12-04T12:04:56.740Z,100544.83
2018-12-04T12:07:26.638Z,100539.53
2018-12-04T12:09:56.573Z,100542.73
2018-12-04T12:12:26.778Z,100541.35
2018-12-04T12:14:56.878Z,100541.47
2018-12-04T12:22:43.467Z,100557.22
2018-12-04T12:33:58.810Z,100582.25
2018-12-04T12:36:28.597Z,100593.00
2018-12-04T12:39:14.301Z,100584.22
2018-12-04T12:41:44.111Z,100594.70
2018-12-04T12:44:13.823Z,100607.98
2018-12-04T12:46:43.583Z,100613.33
2018-12-04T12:49:13.620Z,100616.55
2018-12-04T12:51:43.511Z,100618.88
2018-12-04T12:54:13.542Z,100625.16
2018-12-04T12:56:43.361Z,100632.23
2018-12-04T12:59:13.050Z,100635.52
2018-12-04T13:01:42.868Z,100646.31
2018-12-04T13:04:12.662Z,100642.46
2018-12-04T13:06:42.511Z,100643.68
2018-12-04T13:09:12.269Z,100642.98
2018-12-04T13:11:42.030Z,100650.91
2018-12-04T13:14:11.796Z,100649.02
2018-12-04T13:17:01.977Z,100647.01
2018-12-04T13:19:31.723Z,100646.50
2018-12-04T13:22:01.538Z,100643.97
2018-12-04T13:24:31.538Z,100639.69
2018-12-04T13:27:01.293Z,100638.49
2018-12-04T13:29:38.619Z,100639.60
2018-12-04T13:32:27.634Z,100643.41
2018-12-04T13:34:57.314Z,100644.22
2018-12-04T13:37:27.073Z,100648.47
2018-12-04T13:39:56.824Z,100651.27
2018-12-04T13:42:26.585Z,100665.65
2018-12-04T13:44:56.345Z,100678.88
2018-12-04T13:47:26.174Z,100688.29
2018-12-04T13:49:55.939Z,100689.19
2018-12-04T13:52:25.980Z,100690.76
2018-12-04T13:54:55.731Z,100703.52
2018-12-04T13:57:25.816Z,100708.35
2018-12-04T13:59:55.566Z,100711.89
2018-12-04T14:02:25.341Z,100718.73
2018-12-04T14:04:55.119Z,100728.02
2018-12-04T14:07:24.863Z,100733.48
2018-12-04T14:09:54.640Z,100730.25
2018-12-04T14:12:24.394Z,100725.77
2018-12-04T14:14:54.139Z,100725.91
2018-12-04T14:17:23.910Z,100730.70
2018-12-04T14:19:53.701Z,100731.56
2018-12-04T14:22:23.724Z,100737.81
2018-12-04T14:24:53.578Z,100738.06
2018-12-04T14:27:23.661Z,100747.25
2018-12-04T14:29:53.880Z,100754.11
2018-12-04T14:32:23.771Z,100753.55
2018-12-04T14:34:53.963Z,100758.84
2018-12-04T14:37:24.050Z,100756.14
2018-12-04T14:39:54.256Z,100765.36
2018-12-04T14:42:24.220Z,100759.13
2018-12-04T14:48:23.686Z,100765.48
2018-12-04T14:50:53.497Z,100766.95
2018-12-04T14:53:23.225Z,100758.12
2018-12-04T14:55:53.021Z,100760.44
2018-12-04T15:01:24.458Z,100761.63
2018-12-04T15:03:58.707Z,100755.51
2018-12-04T15:06:28.478Z,100743.66
2018-12-04T15:08:58.621Z,100745.76
2018-12-04T15:11:50.847Z,100744.12
2018-12-04T15:14:30.822Z,100747.86
2018-12-04T15:17:04.349Z,100754.15
2018-12-04T15:19:34.183Z,100744.30
2018-12-04T15:22:04.307Z,100749.37
2018-12-04T15:24:35.067Z,100756.11
2018-12-04T15:27:04.944Z,100758.55
2018-12-04T15:29:55.327Z,100762.36
2018-12-04T15:32:25.388Z,100761.88
2018-12-04T15:34:55.486Z,100769.81
2018-12-04T15:37:25.320Z,100760.95
2018-12-04T15:40:01.295Z,100770.02
2018-12-04T15:42:31.506Z,100774.18
2018-12-04T15:45:01.377Z,100779.42
2018-12-04T15:47:31.370Z,100782.42
2018-12-04T15:50:01.241Z,100786.81
2018-12-04T15:52:31.303Z,100791.69
2018-12-04T15:55:20.057Z,100792.53
2018-12-04T15:57:50.142Z,100797.38
2018-12-04T16:00:19.920Z,100803.56
2018-12-04T16:02:50.074Z,100815.05
2018-12-04T16:05:19.835Z,100821.14
2018-12-04T16:07:49.663Z,100828.36
2018-12-04T16:10:19.412Z,100838.09
2018-12-04T16:12:49.217Z,100847.22
2018-12-04T16:15:19.087Z,100841.33
2018-12-04T16:28:30.305Z,100848.91
2018-12-04T16:31:00.243Z,100857.23
2018-12-04T16:33:30.322Z,100859.05
2018-12-04T16:36:00.102Z,100853.24
2018-12-04T16:38:30.212Z,100854.04
2018-12-04T16:44:10.154Z,100853.95
2018-12-04T16:46:39.925Z,100862.52
2018-12-04T16:49:09.798Z,100858.26
2018-12-04T18:25:57.421Z,100934.97
2018-12-04T18:28:27.216Z,100940.47
2018-12-04T18:30:57.280Z,100949.80
2018-12-04T18:33:27.344Z,100948.79
2018-12-04T18:35:57.183Z,100952.48
2018-12-04T18:38:27.302Z,100947.05
2018-12-04T18:40:57.060Z,100952.41
2018-12-04T18:43:26.985Z,100951.57
2018-12-04T18:45:56.756Z,100952.75
2018-12-04T18:48:26.563Z,100956.80
2018-12-04T18:53:52.029Z,100962.84
2018-12-04T18:56:22.194Z,100967.03
2018-12-04T18:58:52.139Z,100969.55
2018-12-04T19:01:22.176Z,100972.09
2018-12-04T19:03:52.042Z,100969.07
2018-12-04T19:06:22.317Z,100962.99
2018-12-04T19:08:53.662Z,100965.53
2018-12-04T19:11:23.474Z,100976.33
2018-12-04T19:16:31.577Z,100981.05
2018-12-04T19:21:38.257Z,100985.15
2018-12-04T19:24:47.751Z,100992.05
2018-12-04T19:35:46.863Z,100980.13
2018-12-04T19:38:17.037Z,100976.73
2018-12-04T19:40:48.007Z,100990.71
2018-12-04T19:43:20.089Z,100999.12
2018-12-04T19:45:50.878Z,101003.50
2018-12-04T19:48:20.689Z,101009.77
2018-12-04T19:53:39.427Z,101007.72
2018-12-04T19:58:58.760Z,101019.89
2018-12-04T20:01:47.754Z,101018.80
2018-12-04T20:04:17.841Z,101017.62
2018-12-04T20:07:06.816Z,101026.81
2018-12-04T20:09:37.117Z,101024.97
2018-12-04T20:12:06.999Z,101021.64
2018-12-04T20:14:37.071Z,101023.13
2018-12-04T20:17:07.710Z,101027.45
2018-12-04T20:19:38.252Z,101032.96
2018-12-04T20:24:37.335Z,101040.11
2018-12-04T20:27:09.742Z,101041.45
